Aviation Digital Data Service (ADDS)

Output produced by METARs form (0231 UTC 16 January 2019)
found at http://www.aviationweather.gov/metar/data/
 
RCTP 160215Z 06021KT 5000 -RA FEW005 BKN010 BKN015 16/15 Q1022 NOSIG RMK A3020
TAF RCTP 152300Z 1600/1706 05018KT 7000 SCT007 BKN011 BKN025 
     TEMPO 1600/1604 3500 RA SCT004 BKN006 BKN020 
     TEMPO 1604/1610 06024KT 
     TEMPO 1614/1620 5000 RA SCT005 BKN008 BKN020 
     TEMPO 1620/1702 FEW008 BKN016 BKN030 
     BECMG 1704/1706 06014KT
       
RCMQ 160200Z 01014KT 4000 -RA BR SCT003 BKN006 OVC025 16/14 Q1019 NOSIG RMK A3011 RA AMT 0.5MM
TAF RCMQ 152300Z 1600/1624 01015G25KT 4000 -RA BR SCT006 BKN016 OVC030
TX22/1606Z TN15/1620Z 
     TEMPO 1619/1623 7000 FEW012 BKN060
       
RCFN 160200Z 35009KT 260V030 9999 FEW018 BKN055 21/16 Q1020 NOSIG RMK A3013
TAF RCFN 152300Z 1600/1624 34004KT 9999 FEW010 BKN032 
     BECMG 1600/1602 06008KT 
     TEMPO 1602/1608 4000 RA SCT008 BKN016 BKN030 
     BECMG 1610/1612 33004KT 
     TEMPO 1618/1624 FEW010 BKN018 BKN035
       
RCKH 160200Z 36006KT 330V040 4000 BR FEW012 SCT022 BKN035 20/18 Q1019 TEMPO 5000 BR RMK A3009
TAF RCKH 152300Z 1600/1706 01005KT 4000 DZ BR SCT008 BKN018 BKN035 
     BECMG 1600/1602 28008KT 6000 FEW015 SCT035 BKN080 
     TEMPO 1604/1610 5000 RA FEW010 BKN018 BKN035 
     BECMG 1610/1612 33004KT 
     TEMPO 1612/1618 4000 BR 
     TEMPO 1620/1702 2500 BR FEW010 BKN020 BKN035
       
RCSS 160223Z 09011KT 5000 -RA BR FEW005 BKN015 BKN025 17/15 Q1022 NOSIG RMK A3020
TAF RCSS 152300Z 1600/1624 10010KT 8000 FEW010 BKN035 
     TEMPO 1600/1604 4000 RA SCT008 BKN016 BKN030 
     TEMPO 1604/1610 08014KT 
     TEMPO 1614/1620 4000 RA SCT008 BKN015 BKN025 
     TEMPO 1620/1624 FEW010 BKN018
       
RCNN 160200Z 01007KT 5000 -DZ BR SCT008 BKN016 BKN032 17/15 Q1019 NOSIG RMK A3010
TAF RCNN 152300Z 1600/1624 36010KT 8000 -RA FEW012 BKN040 TX24/1606Z TN14/1622Z 
     TEMPO 1601/1603 9999 FEW012 BKN060 
     BECMG 1604/1607 9999 FEW012 BKN060 
     TEMPO 1610/1615 8000 -RA FEW012 BKN030